首页
METAR-TAF:

METAR-TAF

机场 :

阿卡普尔科, 墨西哥

纬度: 16-46N, 经度: 099-45W, 海拔: 5米

当前天气观测

该预报发布于47分钟前的10:42 UTC
静风
温度 23°C
湿度 83%
气压 1011 hPa
能見度: 9.7公里
散云层高于30000英尺

METAR: MMAA 241042Z 00000KT 6SM SCT300 23/20 A2985 RMK 8/002 HZY

时间: 05:29 (11:29 UTC)

预报

该预报发布于7小时和4分钟前的04:25 UTC
预报有效从24日的 06点(UTC)到 25日的 12点(UTC)
风速节,风向
能見度: 9.7公里
散云层高于30000英尺
从 24日的 1800点(UTC)
风速8节,风向西转西南
能見度: 10公里
散云层高于2000英尺
散云层高于25000英尺
成为
从 25日的 05点(UTC)到 25日的 07点(UTC)
风速4节,风向北转东北

TAF: MMAA 240425Z 2406/2512 00000KT 6SM HZ SCT300 TX30/2421Z TN22/2412Z FM241800 24008KT P6SM SCT020 SCT250 BECMG 2505/2507 02004KT

超过4000个机场的气象观测和天气预报(METAR&TAF报告)。

可查询的气象台以黄色和红色小点在地图上表示。

将鼠标移到小点上方,可查看气象台名称。

然后点击查看天气观测和预报。

如需切换地图:点击带黑十字的绿色按钮放大地图;点击带横线的绿色按钮缩小地图;或者点击绿色箭头查看邻近地区的地图。


METAR-TAF: